Time;durP1;ratioP1;P1;durP2;ratioP2;P2;SDS_P1;SDS_P2;PMS_P1;PMS_P2;Temp;Humidity;BMP_temperature;BMP_pressure;BME280_temperature;BME280_humidity;BME280_pressure;Samples;Min_cycle;Max_cycle;Signal;HPM_P1;HPM_P2
2020/12/11 00:01:30;;;;;;;;;;;4.00;99.90;;;;;;5054475;28;20055;-65
2020/12/11 00:03:56;;;;;;;13.82;9.63;;;3.90;99.90;;;;;;5054241;28;19988;-65
2020/12/11 00:06:21;;;;;;;14.90;9.80;;;3.80;99.90;;;;;;5035897;28;20120;-65
2020/12/11 00:08:48;;;;;;;15.13;9.50;;;3.80;99.90;;;;;;5054061;28;20025;-66
2020/12/11 00:11:14;;;;;;;16.00;8.90;;;3.80;99.90;;;;;;5053649;28;20021;-66
2020/12/11 00:13:40;;;;;;;13.10;8.48;;;3.80;99.90;;;;;;5053819;28;20029;-66
2020/12/11 00:16:05;;;;;;;11.80;7.63;;;3.70;99.90;;;;;;5035861;28;20028;-64
2020/12/11 00:18:31;;;;;;;13.80;8.13;;;3.60;99.90;;;;;;5053686;28;20384;-65
2020/12/11 00:21:00;;;;;;;12.27;8.17;;;3.60;99.90;;;;;;5053680;28;20084;-66
2020/12/11 00:23:29;;;;;;;14.98;8.90;;;3.40;99.90;;;;;;5053525;28;20040;-63
2020/12/11 00:25:59;;;;;;;15.18;9.32;;;3.50;99.90;;;;;;5035465;28;20482;-65
2020/12/11 00:28:28;;;;;;;13.25;9.15;;;3.30;99.90;;;;;;5053665;28;20039;-65
2020/12/11 00:30:54;;;;;;;12.38;8.25;;;3.30;99.90;;;;;;5053301;28;20022;-64
2020/12/11 00:33:21;;;;;;;12.13;7.82;;;3.30;99.90;;;;;;5053512;28;20029;-64
2020/12/11 00:35:47;;;;;;;12.13;8.10;;;3.10;99.90;;;;;;5053395;28;20025;-63
2020/12/11 00:38:12;;;;;;;13.50;8.37;;;2.90;99.90;;;;;;5053680;28;20028;-64
2020/12/11 00:40:38;;;;;;;11.53;7.57;;;2.70;99.90;;;;;;5053595;28;20017;-64
2020/12/11 00:43:04;;;;;;;12.03;8.30;;;2.80;99.90;;;;;;5053824;28;20022;-64
2020/12/11 00:45:29;;;;;;;14.77;8.73;;;2.80;99.90;;;;;;5035610;28;20029;-65
2020/12/11 00:47:55;;;;;;;15.10;9.60;;;2.70;99.90;;;;;;5035616;28;20326;-64
2020/12/11 00:50:21;;;;;;;12.53;8.13;;;2.60;99.90;;;;;;5054794;28;20028;-65
2020/12/11 00:52:46;;;;;;;11.33;7.90;;;2.60;99.90;;;;;;5055476;28;20063;-64
2020/12/11 00:55:12;;;;;;;12.67;8.27;;;2.80;99.90;;;;;;5053853;28;20053;-63
2020/12/11 00:57:37;;;;;;;12.97;7.67;;;3.10;99.90;;;;;;5035194;28;20061;-64
2020/12/11 01:00:08;;;;;;;12.77;8.43;;;3.30;99.90;;;;;;5053907;28;20108;-62
2020/12/11 01:02:34;;;;;;;12.00;8.13;;;3.50;99.90;;;;;;5035715;28;20132;-65
2020/12/11 01:04:59;;;;;;;11.63;8.33;;;3.20;99.90;;;;;;5053399;28;20061;-64
2020/12/11 01:07:25;;;;;;;14.30;8.70;;;3.00;99.90;;;;;;5053156;28;20032;-65
2020/12/11 01:09:50;;;;;;;13.43;8.77;;;3.00;99.90;;;;;;5053368;28;20025;-64
2020/12/11 01:12:16;;;;;;;12.20;8.17;;;2.90;99.90;;;;;;5053056;28;20025;-64
2020/12/11 01:14:42;;;;;;;13.10;8.00;;;2.90;99.90;;;;;;5053198;28;20026;-64
2020/12/11 01:17:07;;;;;;;12.70;8.63;;;2.80;99.90;;;;;;5053132;28;20028;-64
2020/12/11 01:19:33;;;;;;;12.53;8.27;;;3.00;99.90;;;;;;5052879;28;20036;-64
2020/12/11 01:22:03;;;;;;;12.93;8.30;;;3.00;99.90;;;;;;5052932;28;20036;-64
2020/12/11 01:24:32;;;;;;;12.10;7.90;;;2.90;99.90;;;;;;5053013;28;20021;-64
2020/12/11 01:26:58;;;;;;;11.82;8.60;;;2.70;99.90;;;;;;5052803;28;20055;-64
2020/12/11 01:29:24;;;;;;;15.50;9.53;;;2.70;99.90;;;;;;5053210;28;20025;-63
2020/12/11 01:31:54;;;;;;;13.90;9.15;;;2.60;99.90;;;;;;5053767;28;20029;-65
2020/12/11 01:34:20;;;;;;;14.20;9.50;;;2.40;99.90;;;;;;5035839;28;20071;-64
2020/12/11 01:36:45;;;;;;;12.20;7.93;;;2.30;99.90;;;;;;5052710;28;20473;-65
2020/12/11 01:39:11;;;;;;;12.97;7.83;;;2.50;99.90;;;;;;5052685;28;20031;-64
2020/12/11 01:41:36;;;;;;;12.57;8.53;;;2.90;99.90;;;;;;5052592;28;20061;-64
2020/12/11 01:44:08;;;;;;;14.37;7.63;;;3.10;99.90;;;;;;5053043;28;20459;-64
2020/12/11 01:46:39;;;;;;;11.65;8.23;;;3.10;99.90;;;;;;5052493;28;20035;-64
2020/12/11 01:49:07;;;;;;;12.32;8.50;;;3.10;99.90;;;;;;5052658;28;20096;-62
2020/12/11 01:51:34;;;;;;;11.70;8.25;;;3.00;99.90;;;;;;5052427;28;20056;-63
2020/12/11 01:53:59;;;;;;;11.55;7.88;;;2.90;99.90;;;;;;5052562;28;20474;-65
2020/12/11 01:56:29;;;;;;;11.53;7.77;;;3.00;99.90;;;;;;5052499;28;20033;-64
2020/12/11 01:59:01;;;;;;;12.43;7.82;;;3.00;99.90;;;;;;5052785;28;20087;-63
2020/12/11 02:01:28;;;;;;;11.60;7.68;;;3.10;99.90;;;;;;5052443;28;20033;-63
2020/12/11 02:03:54;;;;;;;13.20;8.68;;;3.10;99.90;;;;;;5052442;28;20025;-64
2020/12/11 02:06:19;;;;;;;14.60;7.97;;;2.90;99.90;;;;;;5052378;28;20066;-65
2020/12/11 02:08:46;;;;;;;13.47;8.07;;;2.60;99.90;;;;;;5052422;28;20485;-64
2020/12/11 02:11:23;;;;;;;12.70;8.73;;;2.50;99.90;;;;;;5055374;28;20382;-64
2020/12/11 02:13:48;;;;;;;11.50;8.07;;;2.40;99.90;;;;;;5055879;28;20445;-64
2020/12/11 02:16:19;;;;;;;11.60;7.87;;;2.30;99.90;;;;;;5055896;28;20028;-65
2020/12/11 02:18:44;;;;;;;12.85;8.10;;;2.20;99.90;;;;;;5056074;28;20017;-64
2020/12/11 02:21:10;;;;;;;12.33;7.87;;;2.10;99.90;;;;;;5055763;28;20385;-65
2020/12/11 02:23:36;;;;;;;13.47;8.53;;;2.10;99.90;;;;;;5055773;28;20040;-65
2020/12/11 02:26:02;;;;;;;13.88;9.05;;;2.10;99.90;;;;;;5055598;28;20028;-63
2020/12/11 02:28:34;;;;;;;13.13;8.40;;;2.10;99.90;;;;;;5055668;28;20500;-64
2020/12/11 02:31:00;;;;;;;11.65;7.43;;;2.30;99.90;;;;;;5055968;28;20021;-64
2020/12/11 02:33:26;;;;;;;12.35;7.95;;;2.60;99.90;;;;;;5037960;28;20051;-63
2020/12/11 02:35:52;;;;;;;11.23;7.57;;;2.80;99.90;;;;;;5056095;28;20037;-64
2020/12/11 02:38:17;;;;;;;9.80;7.43;;;3.10;99.90;;;;;;5055491;28;20036;-63
2020/12/11 02:40:57;;;;;;;9.60;7.43;;;3.20;99.90;;;;;;5055264;28;20029;-63
2020/12/11 02:43:23;;;;;;;11.18;7.60;;;3.30;99.90;;;;;;5037533;28;20445;-64
2020/12/11 02:45:51;;;;;;;10.73;7.07;;;3.20;99.90;;;;;;5037272;28;20051;-64
2020/12/11 02:48:17;;;;;;;11.07;7.10;;;3.20;99.90;;;;;;5055316;28;20028;-64
2020/12/11 02:50:44;;;;;;;11.30;7.07;;;3.20;99.90;;;;;;5055203;28;20021;-64
2020/12/11 02:53:10;;;;;;;11.50;7.75;;;3.10;99.90;;;;;;5037246;28;20044;-64
2020/12/11 02:55:35;;;;;;;11.05;7.50;;;3.00;99.90;;;;;;5055122;28;20462;-63
2020/12/11 02:58:01;;;;;;;11.33;8.17;;;2.90;99.90;;;;;;5055085;28;20033;-64
2020/12/11 03:00:27;;;;;;;10.80;6.95;;;2.80;99.90;;;;;;5037680;28;20453;-64
2020/12/11 03:02:53;;;;;;;10.33;6.83;;;2.70;99.90;;;;;;5055346;28;20509;-64
2020/12/11 03:05:19;;;;;;;12.27;7.40;;;2.60;99.90;;;;;;5055106;28;20017;-64
2020/12/11 03:07:45;;;;;;;;;;;2.50;99.90;;;;;;5055363;28;20021;-64
2020/12/11 03:10:10;;;;;;;10.60;7.00;;;2.40;99.90;;;;;;5055074;28;19905;-62
2020/12/11 03:12:36;;;;;;;12.33;7.80;;;2.40;99.90;;;;;;5054758;28;20024;-63
2020/12/11 03:15:04;;;;;;;11.03;6.97;;;2.20;99.90;;;;;;5054870;28;20103;-63
2020/12/11 03:17:29;;;;;;;10.32;6.53;;;2.10;99.90;;;;;;5054989;28;20436;-63
2020/12/11 03:19:55;;;;;;;10.90;7.43;;;2.10;99.90;;;;;;5054968;28;20028;-63
2020/12/11 03:22:21;;;;;;;10.17;6.63;;;2.40;99.90;;;;;;5036604;28;20111;-63
2020/12/11 03:24:46;;;;;;;9.97;7.07;;;2.80;99.90;;;;;;5054751;28;20048;-64
2020/12/11 03:27:12;;;;;;;10.30;7.20;;;2.90;99.90;;;;;;5054644;28;20537;-64
2020/12/11 03:29:38;;;;;;;10.60;7.47;;;2.80;99.90;;;;;;5054715;28;20067;-62
2020/12/11 03:32:03;;;;;;;11.80;8.23;;;2.70;99.90;;;;;;5054849;28;20029;-64
2020/12/11 03:34:29;;;;;;;13.73;8.90;;;3.00;99.90;;;;;;5054516;28;20666;-64
2020/12/11 03:36:55;;;;;;;11.60;7.83;;;3.00;99.90;;;;;;5054297;28;20032;-64
2020/12/11 03:39:20;;;;;;;9.23;6.60;;;2.90;99.90;;;;;;5036524;28;20029;-64
2020/12/11 03:41:51;;;;;;;11.93;7.33;;;2.90;99.90;;;;;;5036359;28;20072;-64
2020/12/11 03:44:16;;;;;;;13.75;8.52;;;2.70;99.90;;;;;;5054140;28;20032;-64
2020/12/11 03:46:42;;;;;;;12.90;8.30;;;2.60;99.90;;;;;;5054081;28;20032;-64
2020/12/11 03:49:07;;;;;;;14.00;8.67;;;2.50;99.90;;;;;;5036256;28;20029;-64
2020/12/11 03:51:33;;;;;;;11.77;7.57;;;2.50;99.90;;;;;;5054006;28;20100;-64
2020/12/11 03:53:59;;;;;;;10.47;7.97;;;2.40;99.90;;;;;;5054116;28;20021;-64
2020/12/11 03:56:24;;;;;;;12.53;8.27;;;2.30;99.90;;;;;;5054003;28;20021;-64
2020/12/11 03:58:50;;;;;;;13.50;7.60;;;2.20;99.90;;;;;;5054500;28;20450;-63
2020/12/11 04:01:15;;;;;;;12.03;7.97;;;2.20;99.90;;;;;;5053686;28;20036;-64
2020/12/11 04:03:42;;;;;;;10.03;7.37;;;2.20;99.90;;;;;;5054061;28;20025;-64
2020/12/11 04:06:15;;;;;;;12.40;8.40;;;2.20;99.90;;;;;;5035980;28;20398;-64
2020/12/11 04:08:42;;;;;;;10.85;7.22;;;2.10;99.90;;;;;;5054075;28;20458;-64
2020/12/11 04:11:10;;;;;;;12.23;8.13;;;2.10;99.90;;;;;;5035881;28;20029;-63
2020/12/11 04:13:36;;;;;;;10.90;7.40;;;2.10;99.90;;;;;;5053835;28;20104;-61
2020/12/11 04:16:03;;;;;;;12.47;8.13;;;2.10;99.90;;;;;;5054059;28;20082;-63
2020/12/11 04:18:29;;;;;;;12.70;8.75;;;2.30;99.90;;;;;;5053560;28;20298;-64
2020/12/11 04:20:57;;;;;;;12.35;8.70;;;2.40;99.90;;;;;;5053875;28;20033;-64
2020/12/11 04:23:24;;;;;;;11.90;8.38;;;2.40;99.90;;;;;;5035614;28;20025;-64
2020/12/11 04:25:51;;;;;;;13.43;8.90;;;2.40;99.90;;;;;;5035499;28;20025;-63
2020/12/11 04:28:16;;;;;;;12.07;7.97;;;2.40;99.90;;;;;;5053339;28;20394;-64
2020/12/11 04:30:42;;;;;;;11.40;7.60;;;2.40;99.90;;;;;;5035624;28;20029;-64
2020/12/11 04:33:08;;;;;;;12.87;8.33;;;2.40;99.90;;;;;;5052782;28;20079;-64
2020/12/11 04:35:34;;;;;;;11.13;7.13;;;2.60;99.90;;;;;;5053425;28;20112;-63
2020/12/11 04:38:00;;;;;;;10.23;7.00;;;2.90;99.90;;;;;;5053565;28;20028;-64
2020/12/11 04:40:25;;;;;;;9.80;6.88;;;3.00;99.90;;;;;;5035636;28;20203;-64
2020/12/11 04:42:51;;;;;;;10.43;7.10;;;3.10;99.90;;;;;;5053702;28;20461;-63
2020/12/11 04:45:17;;;;;;;10.75;6.43;;;2.90;99.90;;;;;;5053333;28;20021;-64
2020/12/11 04:47:44;;;;;;;9.07;6.15;;;2.80;99.90;;;;;;5053209;28;20420;-64
2020/12/11 04:50:11;;;;;;;10.77;7.18;;;2.80;99.90;;;;;;5035525;28;20123;-63
2020/12/11 04:52:41;;;;;;;10.32;7.35;;;2.50;99.90;;;;;;5052985;28;20024;-64
2020/12/11 04:55:15;;;;;;;11.48;7.15;;;2.30;99.90;;;;;;5053184;28;20017;-64
2020/12/11 04:57:52;;;;;;;11.82;7.28;;;2.10;99.90;;;;;;5036088;28;20037;-64
2020/12/11 05:00:20;;;;;;;12.95;7.85;;;2.10;99.90;;;;;;5035380;28;20097;-64
2020/12/11 05:02:47;;;;;;;11.43;7.82;;;2.20;99.90;;;;;;5052738;28;20048;-64
2020/12/11 05:05:14;;;;;;;13.95;8.48;;;2.30;99.90;;;;;;5053460;28;20029;-64
2020/12/11 05:07:41;;;;;;;12.65;8.23;;;2.30;99.90;;;;;;5035118;28;20029;-64
2020/12/11 05:10:07;;;;;;;11.07;7.85;;;2.10;99.90;;;;;;5052983;28;20029;-65
2020/12/11 05:12:33;;;;;;;;;;;1.90;99.90;;;;;;5053332;28;20485;-64
2020/12/11 05:15:05;;;;;;;13.15;7.68;;;1.80;99.90;;;;;;5053388;28;19905;-64
2020/12/11 05:17:33;;;;;;;11.80;7.13;;;1.60;99.90;;;;;;5053123;28;20017;-64
2020/12/11 05:20:00;;;;;;;11.43;7.13;;;1.50;99.90;;;;;;5034974;28;20234;-64
2020/12/11 05:22:31;;;;;;;12.07;7.45;;;1.40;99.90;;;;;;5052972;28;20037;-64
2020/12/11 05:24:57;;;;;;;9.60;6.75;;;1.70;99.90;;;;;;5052878;28;20104;-64
2020/12/11 05:27:29;;;;;;;9.43;6.97;;;2.10;99.90;;;;;;5052803;28;20183;-64
2020/12/11 05:29:57;;;;;;;9.70;6.97;;;2.20;99.90;;;;;;5053087;28;20025;-63
2020/12/11 05:32:40;;;;;;;9.30;6.22;;;2.40;99.90;;;;;;5052743;28;20066;-64
2020/12/11 05:35:14;;;;;;;9.95;6.43;;;2.10;99.90;;;;;;5052668;28;20104;-63
2020/12/11 05:38:07;;;;;;;10.00;6.40;;;1.90;99.90;;;;;;5034928;28;20053;-63
2020/12/11 05:40:34;;;;;;;9.40;6.38;;;2.00;99.90;;;;;;5052766;28;20079;-64
2020/12/11 05:43:15;;;;;;;12.73;6.93;;;2.00;99.90;;;;;;5052653;28;20087;-63
2020/12/11 05:45:59;;;;;;;9.52;6.85;;;2.00;99.90;;;;;;5055344;28;20021;-67
2020/12/11 05:48:34;;;;;;;10.20;6.70;;;2.00;99.90;;;;;;5056504;28;20013;-63
2020/12/11 05:51:15;;;;;;;13.68;6.70;;;2.10;99.90;;;;;;5038599;28;20040;-63
2020/12/11 05:53:41;;;;;;;9.38;6.10;;;1.90;99.90;;;;;;5056682;28;20066;-63
2020/12/11 05:56:07;;;;;;;11.87;7.30;;;1.80;99.90;;;;;;5056626;28;20036;-65
2020/12/11 05:58:33;;;;;;;10.57;7.00;;;1.70;99.90;;;;;;5056361;28;20283;-64
2020/12/11 06:00:59;;;;;;;12.40;7.95;;;1.70;99.90;;;;;;5056274;28;20057;-64
2020/12/11 06:03:27;;;;;;;11.60;7.33;;;1.60;99.90;;;;;;5056659;28;20516;-64
2020/12/11 06:05:57;;;;;;;10.30;6.80;;;1.60;99.90;;;;;;5038408;28;20382;-64
2020/12/11 06:08:26;;;;;;;12.00;6.57;;;1.60;99.90;;;;;;5056017;28;20021;-64
2020/12/11 06:10:51;;;;;;;11.07;7.20;;;1.70;99.90;;;;;;5056380;28;20075;-64
2020/12/11 06:13:47;;;;;;;11.27;7.10;;;1.70;99.90;;;;;;5056805;28;20021;-64
2020/12/11 06:16:13;;;;;;;9.32;6.47;;;1.70;99.90;;;;;;5045833;28;20029;-63
2020/12/11 06:18:41;;;;;;;11.70;7.18;;;1.70;99.90;;;;;;5055977;28;20021;-62
2020/12/11 06:21:07;;;;;;;12.68;8.43;;;1.80;99.90;;;;;;5037885;28;20063;-64
2020/12/11 06:23:32;;;;;;;11.27;6.97;;;1.90;99.90;;;;;;5056448;28;20040;-63
2020/12/11 06:26:00;;;;;;;11.40;6.90;;;1.90;99.90;;;;;;5038425;28;20371;-60
2020/12/11 06:28:45;;;;;;;17.90;10.50;;;1.90;99.90;;;;;;5055957;28;20129;-64
2020/12/11 06:31:20;;;;;;;12.13;8.13;;;1.90;99.90;;;;;;5054538;28;20381;-67
2020/12/11 06:33:49;;;;;;;10.45;7.07;;;2.00;99.90;;;;;;5054318;28;20381;-66
2020/12/11 06:36:15;;;;;;;12.40;7.53;;;2.00;99.90;;;;;;5037433;28;20066;-66
2020/12/11 06:38:54;;;;;;;11.82;7.80;;;2.00;99.90;;;;;;5055487;28;20053;-58
2020/12/11 06:41:28;;;;;;;12.25;8.02;;;2.00;99.90;;;;;;5055506;28;20103;-61
2020/12/11 06:43:56;;;;;;;13.70;7.78;;;2.10;99.90;;;;;;5056023;28;20500;-54
2020/12/11 06:46:24;;;;;;;12.45;7.47;;;2.10;99.90;;;;;;5055047;28;20029;-58
2020/12/11 06:49:05;;;;;;;15.82;8.18;;;2.10;99.90;;;;;;5055560;28;20021;-56
2020/12/11 06:51:32;;;;;;;15.63;8.88;;;2.10;99.90;;;;;;5055682;28;20014;-55
2020/12/11 06:53:58;;;;;;;15.55;9.15;;;2.10;99.90;;;;;;5037453;28;20046;-58
2020/12/11 06:56:43;;;;;;;16.33;9.00;;;2.10;99.90;;;;;;5054766;28;20032;-59
2020/12/11 06:59:23;;;;;;;15.50;8.30;;;2.10;99.90;;;;;;5055692;28;20083;-58
2020/12/11 07:01:56;;;;;;;12.85;8.80;;;2.10;99.90;;;;;;5080376;22;20013;-64
2020/12/11 07:04:22;;;;;;;13.07;8.52;;;2.10;99.90;;;;;;5075779;28;20040;-65
2020/12/11 07:06:54;;;;;;;13.55;8.45;;;2.20;99.90;;;;;;5058086;28;20476;-66
2020/12/11 07:09:20;;;;;;;15.77;8.63;;;2.20;99.90;;;;;;5077504;28;20040;-69
2020/12/11 07:11:48;;;;;;;15.32;8.80;;;2.20;99.90;;;;;;5082401;28;20048;-68
2020/12/11 07:14:14;;;;;;;18.13;9.27;;;2.30;99.90;;;;;;5082685;28;20040;-66
2020/12/11 07:16:44;;;;;;;12.52;8.68;;;2.20;99.90;;;;;;5085500;28;20103;-68
2020/12/11 07:19:10;;;;;;;18.33;10.75;;;2.20;99.90;;;;;;5076918;28;20060;-68
2020/12/11 07:21:37;;;;;;;;;;;2.10;99.90;;;;;;5077540;28;20024;-67
2020/12/11 07:24:04;;;;;;;14.75;9.55;;;2.20;99.90;;;;;;5058302;28;19908;-68
2020/12/11 07:26:31;;;;;;;15.43;9.88;;;2.20;99.90;;;;;;5076213;28;20021;-68
2020/12/11 07:29:04;;;;;;;18.77;8.90;;;2.20;99.90;;;;;;5076343;28;20032;-68
2020/12/11 07:31:35;;;;;;;18.45;9.43;;;2.20;99.90;;;;;;5058669;28;20033;-68
2020/12/11 07:34:01;;;;;;;16.25;9.55;;;2.20;99.90;;;;;;5075144;28;20040;-69
2020/12/11 07:36:27;;;;;;;15.55;9.98;;;2.20;99.90;;;;;;5056852;28;20128;-69
2020/12/11 07:38:53;;;;;;;;;;;2.20;99.90;;;;;;5056991;28;20100;-69
2020/12/11 07:41:19;;;;;;;16.17;9.02;;;2.30;99.90;;;;;;5056682;28;20380;-67
2020/12/11 07:43:46;;;;;;;17.75;9.63;;;2.30;99.90;;;;;;5074407;28;20031;-69
2020/12/11 07:46:20;;;;;;;16.00;10.30;;;2.30;99.90;;;;;;5074496;28;20037;-68
2020/12/11 07:48:52;;;;;;;19.20;10.90;;;2.30;99.90;;;;;;5056580;28;20020;-69
2020/12/11 07:51:21;;;;;;;18.23;10.35;;;2.30;99.90;;;;;;5056561;28;20023;-67
2020/12/11 07:53:51;;;;;;;15.25;10.00;;;2.20;99.90;;;;;;5056664;28;20052;-69
2020/12/11 07:56:17;;;;;;;17.08;10.70;;;2.30;99.90;;;;;;5057206;28;20088;-67
2020/12/11 07:58:42;;;;;;;17.70;10.25;;;2.30;99.90;;;;;;5057325;28;20063;-68
2020/12/11 08:01:08;;;;;;;17.93;10.63;;;2.40;99.90;;;;;;5074980;28;20086;-68
2020/12/11 08:03:34;;;;;;;16.73;9.73;;;2.40;99.90;;;;;;5056844;28;20036;-68
2020/12/11 08:05:59;;;;;;;17.93;10.23;;;2.40;99.90;;;;;;5056576;28;20094;-69
2020/12/11 08:08:26;;;;;;;18.33;10.93;;;2.50;99.90;;;;;;5056232;28;20487;-70
2020/12/11 08:10:52;;;;;;;18.35;10.48;;;2.50;99.90;;;;;;5074300;28;20020;-69
2020/12/11 08:13:21;;;;;;;15.87;10.50;;;2.50;99.90;;;;;;5056228;28;20031;-69
2020/12/11 08:15:46;;;;;;;22.10;11.75;;;2.40;99.90;;;;;;5057303;28;20374;-68
2020/12/11 08:18:20;;;;;;;18.67;10.83;;;2.30;99.90;;;;;;5056249;28;20021;-68
2020/12/11 08:20:49;;;;;;;18.65;11.30;;;2.30;99.90;;;;;;5074173;28;20343;-67
2020/12/11 08:23:26;;;;;;;19.15;11.10;;;2.30;99.90;;;;;;5074416;28;20099;-69
2020/12/11 08:26:12;;;;;;;17.40;10.52;;;2.30;99.90;;;;;;5073832;28;20074;-68
2020/12/11 08:28:38;;;;;;;17.90;11.10;;;2.40;99.90;;;;;;5056022;28;20029;-67
2020/12/11 08:31:14;;;;;;;;;;;2.40;99.90;;;;;;5074622;28;20034;-70
2020/12/11 08:33:40;;;;;;;22.17;11.77;;;2.50;99.90;;;;;;5074056;28;20313;-67
2020/12/11 08:36:16;;;;;;;19.83;10.53;;;2.60;99.90;;;;;;5074336;28;20048;-69
2020/12/11 08:38:41;;;;;;;19.48;10.68;;;2.60;99.90;;;;;;5058096;28;20135;-68
2020/12/11 08:41:14;;;;;;;16.37;10.27;;;2.70;99.90;;;;;;5079990;28;20055;-68
2020/12/11 08:43:44;;;;;;;19.60;11.50;;;2.90;99.90;;;;;;5064635;28;20029;-69
2020/12/11 08:46:17;;;;;;;21.35;10.48;;;2.80;99.90;;;;;;5063907;28;20036;-70
2020/12/11 08:49:12;;;;;;;18.23;10.25;;;2.80;99.90;;;;;;5078901;28;20137;-69
2020/12/11 08:51:38;;;;;;;20.77;10.85;;;2.60;99.90;;;;;;5077017;28;20095;-70
2020/12/11 08:54:06;;;;;;;19.80;10.60;;;2.50;99.90;;;;;;5077085;28;20099;-67
2020/12/11 08:56:32;;;;;;;16.02;9.35;;;2.40;99.90;;;;;;5059230;28;20393;-67
2020/12/11 08:58:58;;;;;;;19.97;11.00;;;2.50;99.90;;;;;;5074369;28;20031;-67
2020/12/11 09:01:23;;;;;;;19.70;10.77;;;2.70;99.90;;;;;;5074443;28;20029;-69
2020/12/11 09:03:49;;;;;;;20.03;10.23;;;2.80;99.90;;;;;;5055365;28;20036;-69
2020/12/11 09:06:14;;;;;;;16.03;9.83;;;2.90;99.90;;;;;;5055831;28;20042;-68
2020/12/11 09:08:40;;;;;;;18.03;10.37;;;3.00;99.90;;;;;;5056313;28;20044;-69
2020/12/11 09:11:05;;;;;;;23.07;10.03;;;3.10;99.90;;;;;;5074193;28;20183;-69
2020/12/11 09:13:31;;;;;;;14.93;9.23;;;3.10;99.90;;;;;;5056051;28;20043;-68
2020/12/11 09:15:57;;;;;;;18.97;9.50;;;3.20;99.90;;;;;;5073979;28;20024;-68
2020/12/11 09:18:23;;;;;;;17.77;8.90;;;3.10;99.90;;;;;;5056772;28;20119;-69
2020/12/11 09:20:49;;;;;;;14.77;8.57;;;3.10;99.90;;;;;;5077988;28;20048;-69
2020/12/11 09:23:15;;;;;;;15.20;8.80;;;3.10;99.90;;;;;;5078506;28;20016;-68
2020/12/11 09:25:41;;;;;;;16.47;9.47;;;3.20;99.90;;;;;;5078598;28;20104;-68
2020/12/11 09:28:13;;;;;;;13.70;8.40;;;3.10;99.90;;;;;;5060232;28;20032;-68
2020/12/11 09:30:39;;;;;;;14.60;8.65;;;3.20;99.90;;;;;;5060583;28;20089;-67
2020/12/11 09:35:37;;;;;;;17.60;8.23;;;3.60;99.90;;;;;;5078926;28;19999;-68
2020/12/11 09:38:03;;;;;;;14.47;8.97;;;3.70;99.90;;;;;;5061262;28;20098;-68
2020/12/11 09:40:48;;;;;;;14.63;9.00;;;3.60;99.90;;;;;;5078360;28;20024;-68
2020/12/11 09:45:54;;;;;;;14.30;8.30;;;3.30;99.90;;;;;;5077369;28;20017;-67
2020/12/11 09:48:44;;;;;;;13.05;8.23;;;3.20;99.90;;;;;;5060803;28;20021;-67
2020/12/11 09:56:26;;;;;;;13.02;7.82;;;3.50;99.90;;;;;;5076914;28;20135;-68
2020/12/11 09:59:04;;;;;;;11.98;7.82;;;3.50;99.90;;;;;;5076868;28;20025;-68
2020/12/11 10:04:11;;;;;;;14.75;7.95;;;3.90;99.90;;;;;;5076558;28;20040;-69
2020/12/11 10:06:37;;;;;;;10.97;7.37;;;3.90;99.90;;;;;;5059173;28;20029;-68
2020/12/11 10:09:03;;;;;;;10.77;7.67;;;3.90;99.90;;;;;;5058611;28;20024;-68
2020/12/11 10:11:29;;;;;;;16.10;7.40;;;3.90;99.90;;;;;;5058260;28;20340;-68
2020/12/11 10:14:11;;;;;;;11.87;7.47;;;4.10;99.90;;;;;;5076460;28;20426;-68
2020/12/11 10:16:37;;;;;;;11.52;8.02;;;3.90;99.90;;;;;;5058353;28;20024;-68
2020/12/11 10:19:03;;;;;;;22.73;8.00;;;3.80;99.90;;;;;;5058266;28;20427;-69
2020/12/11 10:21:30;;;;;;;19.20;8.80;;;3.70;99.90;;;;;;5076894;28;20058;-68
2020/12/11 10:23:55;;;;;;;13.20;7.53;;;3.70;99.90;;;;;;5058066;28;20028;-68
2020/12/11 10:26:21;;;;;;;12.30;7.30;;;3.60;99.90;;;;;;5059642;28;20024;-68
2020/12/11 10:28:46;;;;;;;14.27;8.13;;;3.70;99.90;;;;;;5080449;28;20531;-69
2020/12/11 10:31:12;;;;;;;14.93;7.83;;;3.70;99.90;;;;;;5078680;28;20020;-69
2020/12/11 10:33:38;;;;;;;12.33;7.87;;;3.70;99.90;;;;;;5077425;28;20489;-69
2020/12/11 10:36:03;;;;;;;13.43;8.23;;;3.80;99.90;;;;;;5078938;28;20024;-69
2020/12/11 10:38:29;;;;;;;13.00;7.80;;;3.90;99.90;;;;;;5079350;28;20423;-68
2020/12/11 10:40:54;;;;;;;12.33;8.00;;;4.00;99.90;;;;;;5080637;28;20031;-69
2020/12/11 10:43:20;;;;;;;15.27;8.57;;;4.10;99.90;;;;;;5061938;28;20035;-68
2020/12/11 10:45:46;;;;;;;14.80;8.43;;;4.20;99.90;;;;;;5079835;28;20040;-68
2020/12/11 10:48:11;;;;;;;18.90;8.90;;;4.10;99.90;;;;;;5077444;28;20035;-68
2020/12/11 10:50:37;;;;;;;15.43;8.97;;;3.90;99.90;;;;;;5058387;28;20027;-68
2020/12/11 10:53:02;;;;;;;15.10;8.10;;;3.90;99.90;;;;;;5058950;28;20388;-68
2020/12/11 10:55:28;;;;;;;12.33;8.60;;;4.00;99.90;;;;;;5076853;28;20031;-68
2020/12/11 10:57:54;;;;;;;16.73;8.33;;;4.10;99.90;;;;;;5058651;28;20122;-68
2020/12/11 11:00:19;;;;;;;16.03;7.77;;;4.40;99.90;;;;;;5076134;28;20032;-68
2020/12/11 11:02:45;;;;;;;14.37;8.30;;;4.60;99.90;;;;;;5057829;28;20037;-68
2020/12/11 11:05:11;;;;;;;17.37;8.23;;;4.80;99.90;;;;;;5075734;28;20027;-68
2020/12/11 11:07:37;;;;;;;15.18;8.43;;;4.90;99.90;;;;;;5076474;28;20024;-67
2020/12/11 11:12:40;;;;;;;15.20;8.90;;;5.20;99.90;;;;;;5076937;28;20031;-68
2020/12/11 11:18:05;;;;;;;13.23;8.38;;;5.40;99.90;;;;;;5076643;28;20558;-68
2020/12/11 11:26:03;;;;;;;15.87;9.47;;;5.30;99.90;;;;;;5077434;28;20024;-68
2020/12/11 11:28:28;;;;;;;19.05;10.15;;;5.20;99.90;;;;;;5076218;28;20103;-68
2020/12/11 11:30:54;;;;;;;15.50;9.30;;;5.10;99.90;;;;;;5075620;28;20120;-68
2020/12/11 11:33:19;;;;;;;15.27;8.70;;;5.00;99.90;;;;;;5057344;28;20032;-69
2020/12/11 11:35:48;;;;;;;15.40;8.97;;;5.00;99.90;;;;;;5075523;28;20375;-70
2020/12/11 11:38:14;;;;;;;15.75;10.05;;;5.00;99.90;;;;;;5075574;28;20179;-69
2020/12/11 11:40:40;;;;;;;16.53;9.23;;;5.00;99.90;;;;;;5075642;28;20017;-69
2020/12/11 11:43:06;;;;;;;13.50;8.73;;;5.00;99.90;;;;;;5082268;28;20036;-69
2020/12/11 11:45:36;;;;;;;14.68;9.65;;;5.00;99.90;;;;;;5090648;28;20021;-69
2020/12/11 11:48:07;;;;;;;22.40;10.05;;;5.00;99.90;;;;;;5068525;28;20024;-69
2020/12/11 11:53:21;;;;;;;21.05;11.30;;;5.10;99.90;;;;;;5083291;28;20069;-69
2020/12/11 11:55:47;;;;;;;17.25;10.52;;;5.10;99.90;;;;;;5066321;28;20302;-69
2020/12/11 11:58:13;;;;;;;16.30;9.68;;;5.20;99.90;;;;;;5079451;28;20381;-68
2020/12/11 12:00:39;;;;;;;42.05;11.07;;;5.10;99.90;;;;;;5076462;28;20027;-69
2020/12/11 12:03:05;;;;;;;18.90;9.67;;;5.10;99.90;;;;;;5057012;28;20033;-68
2020/12/11 12:05:31;;;;;;;18.05;10.43;;;5.10;99.90;;;;;;5074585;28;20073;-68
2020/12/11 12:07:57;;;;;;;14.93;9.88;;;5.20;99.90;;;;;;5074711;28;20025;-69
2020/12/11 12:10:22;;;;;;;16.75;9.98;;;5.30;99.90;;;;;;5074685;28;20024;-68
2020/12/11 12:12:48;;;;;;;22.57;10.43;;;5.30;99.90;;;;;;5074124;28;20035;-69
2020/12/11 12:15:16;;;;;;;18.45;10.30;;;5.40;99.90;;;;;;5074823;28;20020;-69
2020/12/11 12:18:04;;;;;;;18.10;10.40;;;5.40;99.90;;;;;;5056721;28;20033;-68
2020/12/11 12:28:40;;;;;;;19.55;11.50;;;5.30;99.90;;;;;;5075387;28;20035;-68
2020/12/11 12:31:07;;;;;;;17.95;10.27;;;5.20;99.90;;;;;;5074531;28;20393;-68
2020/12/11 12:43:39;;;;;;;18.42;10.57;;;5.00;99.90;;;;;;5075120;28;20089;-68
2020/12/11 12:46:05;;;;;;;20.53;11.03;;;5.00;99.90;;;;;;5073690;28;20433;-68
2020/12/11 12:48:31;;;;;;;23.90;11.13;;;5.00;99.90;;;;;;5055697;28;20548;-68
2020/12/11 12:50:56;;;;;;;18.27;10.50;;;5.00;99.90;;;;;;5073831;28;20029;-68
2020/12/11 12:53:22;;;;;;;17.60;11.03;;;5.00;99.90;;;;;;5073021;28;20028;-68
2020/12/11 12:56:30;;;;;;;21.30;12.53;;;5.00;99.90;;;;;;5073486;28;20035;-68
2020/12/11 12:58:38;;;;;;;17.52;10.88;;;5.00;99.90;;;;;;5073064;28;20083;-68
2020/12/11 13:01:16;;;;;;;20.52;10.85;;;5.00;99.90;;;;;;5073270;28;20016;-68
2020/12/11 13:06:13;;;;;;;20.63;11.80;;;5.10;99.90;;;;;;5053350;28;20085;-65
2020/12/11 13:08:38;;;;;;;18.33;11.13;;;5.20;99.90;;;;;;5053625;28;20080;-65
2020/12/11 13:11:04;;;;;;;23.90;12.17;;;5.10;99.90;;;;;;5053203;28;20060;-65
2020/12/11 13:13:29;;;;;;;26.63;11.77;;;5.00;99.90;;;;;;5052901;28;20032;-64
2020/12/11 13:15:55;;;;;;;19.63;12.63;;;5.10;99.90;;;;;;5053210;28;20167;-64
2020/12/11 13:18:21;;;;;;;17.03;11.80;;;5.00;99.90;;;;;;5053024;28;20029;-64
2020/12/11 13:20:47;;;;;;;19.90;12.40;;;5.00;99.90;;;;;;5053847;28;20381;-63
2020/12/11 13:28:46;;;;;;;19.27;11.88;;;4.80;99.90;;;;;;5036412;28;20052;-66
2020/12/11 13:31:18;;;;;;;20.13;12.73;;;4.80;99.90;;;;;;5054006;28;20512;-68
2020/12/11 13:33:44;;;;;;;21.20;12.93;;;4.80;99.90;;;;;;5053436;28;20020;-67
2020/12/11 13:36:09;;;;;;;20.27;11.90;;;4.80;99.90;;;;;;5053589;28;20099;-67
2020/12/11 13:38:35;;;;;;;20.60;12.43;;;4.80;99.90;;;;;;5035822;28;20024;-66
2020/12/11 13:41:01;;;;;;;20.50;12.17;;;4.70;99.90;;;;;;5054512;28;20259;-72
2020/12/11 13:43:26;;;;;;;16.23;11.13;;;4.70;99.90;;;;;;5036005;28;20026;-63
2020/12/11 13:45:52;;;;;;;19.97;11.87;;;4.60;99.90;;;;;;5054678;28;20025;-63